Time;durP1;ratioP1;P1;durP2;ratioP2;P2;SDS_P1;SDS_P2;PMS_P1;PMS_P2;Temp;Humidity;BMP_temperature;BMP_pressure;BME280_temperature;BME280_humidity;BME280_pressure;Samples;Min_cycle;Max_cycle;Signal;HPM_P1;HPM_P2
2022/02/12 00:00:07;;;;;;;10.07;7.67;;;2.60;99.90;;;;;;5047480;28;20445;-74
2022/02/12 00:02:33;;;;;;;10.93;8.23;;;2.50;99.90;;;;;;5038451;28;20217;-74
2022/02/12 00:04:59;;;;;;;11.93;7.37;;;2.50;99.90;;;;;;5046739;28;20425;-72
2022/02/12 00:07:24;;;;;;;8.63;7.50;;;2.50;99.90;;;;;;5046537;28;20249;-73
2022/02/12 00:09:50;;;;;;;11.57;8.47;;;2.50;99.90;;;;;;5046283;28;20182;-73
2022/02/12 00:12:15;;;;;;;8.60;7.77;;;2.50;99.90;;;;;;5045888;28;20184;-76
2022/02/12 00:14:42;;;;;;;11.67;7.23;;;2.50;99.90;;;;;;5046695;28;20312;-72
2022/02/12 00:17:08;;;;;;;8.03;6.27;;;2.40;99.90;;;;;;5046793;28;20194;-72
2022/02/12 00:19:34;;;;;;;11.47;8.27;;;2.50;99.90;;;;;;5046758;28;20449;-73
2022/02/12 00:22:00;;;;;;;8.90;7.10;;;2.60;99.90;;;;;;5046727;28;20415;-72
2022/02/12 00:24:25;;;;;;;8.70;7.33;;;2.70;99.90;;;;;;5046512;28;20683;-74
2022/02/12 00:26:51;;;;;;;7.93;7.03;;;2.60;99.90;;;;;;5040913;28;20198;-72
2022/02/12 00:29:17;;;;;;;8.37;6.93;;;2.60;99.90;;;;;;5046656;28;20269;-73
2022/02/12 00:31:42;;;;;;;8.00;6.57;;;2.50;99.90;;;;;;5046410;28;20178;-72
2022/02/12 00:34:08;;;;;;;11.03;8.60;;;2.60;99.90;;;;;;5045558;28;20181;-75
2022/02/12 00:36:33;;;;;;;10.00;8.13;;;2.60;99.90;;;;;;5045832;28;20265;-71
2022/02/12 00:38:59;;;;;;;12.43;8.27;;;2.60;99.90;;;;;;5045655;28;20228;-72
2022/02/12 00:41:25;;;;;;;12.67;9.03;;;2.60;99.90;;;;;;5045539;28;20190;-71
2022/02/12 00:43:50;;;;;;;8.83;8.00;;;2.50;99.90;;;;;;5045406;28;20217;-70
2022/02/12 00:46:16;;;;;;;13.37;7.77;;;2.50;99.90;;;;;;5045045;28;20644;-71
2022/02/12 00:48:41;;;;;;;17.10;9.17;;;2.50;99.90;;;;;;5043998;28;20177;-74
2022/02/12 00:51:07;;;;;;;15.23;11.13;;;2.40;99.90;;;;;;5045660;28;20185;-71
2022/02/12 00:53:33;;;;;;;16.50;9.73;;;2.30;99.90;;;;;;5045379;28;20182;-72
2022/02/12 00:55:58;;;;;;;13.60;10.60;;;2.30;99.90;;;;;;5044754;28;20273;-72
2022/02/12 00:58:24;;;;;;;14.43;10.80;;;2.40;99.90;;;;;;5045564;28;20211;-71
2022/02/12 01:00:49;;;;;;;17.83;12.30;;;2.40;99.90;;;;;;5045246;28;20555;-73
2022/02/12 01:03:15;;;;;;;17.27;11.00;;;2.40;99.90;;;;;;5044765;28;20190;-72
2022/02/12 01:05:41;;;;;;;13.53;10.77;;;2.40;99.90;;;;;;5044960;28;20222;-71
2022/02/12 01:08:07;;;;;;;16.80;10.80;;;2.50;99.90;;;;;;5044520;28;20703;-73
2022/02/12 01:10:34;;;;;;;16.10;12.20;;;2.50;99.90;;;;;;5045024;28;20416;-73
2022/02/12 01:13:01;;;;;;;16.03;12.30;;;2.60;99.90;;;;;;5044946;28;20832;-72
2022/02/12 01:15:27;;;;;;;18.73;13.30;;;2.40;99.90;;;;;;5044837;28;20425;-73
2022/02/12 01:17:53;;;;;;;16.73;14.00;;;2.40;99.90;;;;;;5045707;28;21691;-75
2022/02/12 01:20:20;;;;;;;17.50;14.13;;;2.40;99.90;;;;;;5045206;28;20484;-72
2022/02/12 01:22:48;;;;;;;17.17;15.33;;;2.40;99.90;;;;;;5045171;28;20463;-72
2022/02/12 01:25:17;;;;;;;21.60;16.17;;;2.40;99.90;;;;;;5044284;28;20987;-74
2022/02/12 01:27:43;;;;;;;18.13;14.77;;;2.40;99.90;;;;;;5045234;28;20437;-74
2022/02/12 01:30:09;;;;;;;20.20;16.03;;;2.40;99.90;;;;;;5039260;28;20467;-72
2022/02/12 01:32:35;;;;;;;16.63;13.20;;;2.30;99.90;;;;;;5028260;28;20186;-72
2022/02/12 01:35:01;;;;;;;17.57;14.83;;;2.30;99.90;;;;;;5045018;28;20437;-73
2022/02/12 01:37:27;;;;;;;22.30;17.10;;;2.20;99.90;;;;;;5044560;28;20503;-73
2022/02/12 01:39:53;;;;;;;17.23;15.27;;;2.30;99.90;;;;;;5044777;28;20510;-72
2022/02/12 01:42:19;;;;;;;20.80;15.57;;;2.30;99.90;;;;;;5044403;28;20405;-71
2022/02/12 01:44:45;;;;;;;17.43;14.00;;;2.30;99.90;;;;;;5044019;28;20202;-72
2022/02/12 01:47:12;;;;;;;20.73;16.60;;;2.20;99.90;;;;;;5044005;28;20780;-72
2022/02/12 01:49:40;;;;;;;19.30;15.37;;;2.20;99.90;;;;;;5044154;28;20421;-74
2022/02/12 01:52:11;;;;;;;22.50;16.30;;;2.20;99.90;;;;;;5044008;28;20467;-74
2022/02/12 01:54:37;;;;;;;19.37;15.70;;;2.20;99.90;;;;;;5043539;28;20956;-72
2022/02/12 01:57:05;;;;;;;16.73;15.03;;;2.30;99.90;;;;;;5044150;28;20493;-72
2022/02/12 01:59:31;;;;;;;21.30;16.43;;;2.30;99.90;;;;;;5043494;28;20499;-72
2022/02/12 02:01:57;;;;;;;16.47;14.03;;;2.20;99.90;;;;;;5044050;28;20405;-75
2022/02/12 02:04:23;;;;;;;19.90;16.43;;;2.10;99.90;;;;;;5043989;28;20422;-72
2022/02/12 02:06:49;;;;;;;25.20;16.73;;;2.10;99.90;;;;;;5043842;28;20178;-76
2022/02/12 02:09:16;;;;;;;22.70;16.30;;;2.00;99.90;;;;;;5040694;28;20960;-72
2022/02/12 02:11:42;;;;;;;19.47;16.03;;;2.00;99.90;;;;;;5043344;28;20183;-74
2022/02/12 02:14:08;;;;;;;20.70;14.23;;;2.00;99.90;;;;;;5043109;28;20428;-72
2022/02/12 02:16:34;;;;;;;19.70;15.17;;;2.10;99.90;;;;;;5043436;28;20435;-73
2022/02/12 02:18:59;;;;;;;24.03;16.80;;;2.10;99.90;;;;;;5043479;28;20420;-71
2022/02/12 02:21:27;;;;;;;19.67;14.80;;;2.10;99.90;;;;;;5043717;28;20416;-71
2022/02/12 02:23:53;;;;;;;21.50;14.53;;;2.00;99.90;;;;;;5043848;28;20613;-74
2022/02/12 02:26:19;;;;;;;17.07;14.13;;;1.90;99.90;;;;;;5046875;28;20451;-71
2022/02/12 02:28:50;;;;;;;22.63;17.27;;;1.90;99.90;;;;;;5047152;28;20469;-71
2022/02/12 02:31:15;;;;;;;17.77;15.60;;;1.80;99.90;;;;;;5047127;28;20423;-72
2022/02/12 02:33:41;;;;;;;22.27;16.90;;;1.80;99.90;;;;;;5047308;28;21256;-72
2022/02/12 02:36:07;;;;;;;20.53;14.40;;;1.90;99.90;;;;;;5047097;28;20202;-72
2022/02/12 02:38:32;;;;;;;22.83;15.50;;;1.80;99.90;;;;;;5046703;28;20605;-74
2022/02/12 02:40:58;;;;;;;15.73;12.63;;;1.70;99.90;;;;;;5047012;28;20277;-72
2022/02/12 02:43:25;;;;;;;20.73;16.50;;;1.70;99.90;;;;;;5046741;28;20626;-72
2022/02/12 02:45:51;;;;;;;16.63;13.23;;;1.70;99.90;;;;;;5047086;28;20220;-73
2022/02/12 02:48:17;;;;;;;18.47;13.10;;;1.70;99.90;;;;;;5047106;28;20902;-72
2022/02/12 02:56:12;;;;;;;18.67;13.23;;;1.70;99.90;;;;;;5046097;28;20541;-76
2022/02/12 02:58:41;;;;;;;18.20;12.37;;;1.70;99.90;;;;;;5046784;28;20937;-74
2022/02/12 03:01:07;;;;;;;15.57;10.43;;;1.70;99.90;;;;;;5046639;28;20507;-72
2022/02/12 03:03:32;;;;;;;14.90;11.07;;;1.60;99.90;;;;;;5046409;28;20448;-75
2022/02/12 03:05:58;;;;;;;17.60;12.00;;;1.50;99.90;;;;;;5046522;28;20202;-71
2022/02/12 03:08:28;;;;;;;17.20;11.70;;;1.60;99.90;;;;;;5046414;28;20481;-71
2022/02/12 03:10:54;;;;;;;15.93;11.10;;;1.60;99.90;;;;;;5045940;28;20570;-72
2022/02/12 03:13:20;;;;;;;15.10;10.63;;;1.60;99.90;;;;;;5046409;28;20416;-72
2022/02/12 03:15:46;;;;;;;12.53;9.60;;;1.50;99.90;;;;;;5032126;28;20440;-74
2022/02/12 03:18:12;;;;;;;18.37;10.73;;;1.50;99.90;;;;;;5046719;28;20432;-70
2022/02/12 03:20:38;;;;;;;14.57;10.73;;;1.50;99.90;;;;;;5046066;28;20460;-74
2022/02/12 03:23:06;;;;;;;12.63;10.37;;;1.50;99.90;;;;;;5046370;28;20177;-75
2022/02/12 03:25:31;;;;;;;12.60;9.60;;;1.60;99.90;;;;;;5047168;28;20617;-72
2022/02/12 03:28:00;;;;;;;15.73;10.70;;;1.60;99.90;;;;;;5047100;28;20506;-75
2022/02/12 03:30:27;;;;;;;11.83;9.63;;;1.60;99.90;;;;;;5047131;28;20175;-70
2022/02/12 03:32:53;;;;;;;17.47;11.30;;;1.60;99.90;;;;;;5047659;28;20423;-75
2022/02/12 03:35:19;;;;;;;19.80;11.13;;;1.50;99.90;;;;;;5046958;28;20438;-76
2022/02/12 03:37:45;;;;;;;17.97;11.77;;;1.50;99.90;;;;;;5046438;28;20432;-75
2022/02/12 03:40:12;;;;;;;14.40;11.70;;;1.30;99.90;;;;;;5045184;28;20880;-72
2022/02/12 03:42:39;;;;;;;14.07;11.67;;;1.40;99.90;;;;;;5045575;28;20695;-70
2022/02/12 03:45:05;;;;;;;12.90;10.07;;;1.40;99.90;;;;;;5045799;28;20487;-73
2022/02/12 03:47:31;;;;;;;17.10;10.17;;;1.30;99.90;;;;;;5062472;22;20495;-72
2022/02/12 03:49:56;;;;;;;12.83;10.43;;;1.30;99.90;;;;;;5045817;28;20413;-72
2022/02/12 03:52:22;;;;;;;16.77;12.60;;;1.40;99.90;;;;;;5046403;28;20182;-73
2022/02/12 03:54:47;;;;;;;13.47;11.53;;;1.50;99.90;;;;;;5041152;28;20209;-72
2022/02/12 03:57:13;;;;;;;12.77;10.00;;;1.50;99.90;;;;;;5045252;28;20209;-73
2022/02/12 03:59:38;;;;;;;13.40;10.37;;;1.40;99.90;;;;;;5045315;28;20201;-72
2022/02/12 04:02:05;;;;;;;14.13;10.43;;;1.40;99.90;;;;;;5045713;28;20565;-72
2022/02/12 04:04:30;;;;;;;16.53;13.03;;;1.50;99.90;;;;;;5045406;28;20254;-71
2022/02/12 04:06:56;;;;;;;16.27;11.20;;;1.50;99.90;;;;;;5046202;28;20463;-72
2022/02/12 04:09:21;;;;;;;17.80;12.50;;;1.50;99.90;;;;;;5045658;28;20336;-72
2022/02/12 04:11:47;;;;;;;15.77;12.27;;;1.50;99.90;;;;;;5043266;28;20241;-73
2022/02/12 04:14:13;;;;;;;12.57;10.10;;;1.50;99.90;;;;;;5045134;28;20181;-73
2022/02/12 04:16:38;;;;;;;13.53;9.17;;;1.40;99.90;;;;;;5044120;28;20191;-72
2022/02/12 04:19:04;;;;;;;14.53;12.30;;;1.40;99.90;;;;;;5045639;28;20417;-74
2022/02/12 04:21:29;;;;;;;13.80;11.60;;;1.30;99.90;;;;;;5045658;28;20181;-73
2022/02/12 04:23:55;;;;;;;19.53;14.23;;;1.40;99.90;;;;;;5045002;28;20758;-72
2022/02/12 04:26:21;;;;;;;20.50;15.20;;;1.40;99.90;;;;;;5043676;28;20224;-71
2022/02/12 04:28:46;;;;;;;19.33;15.37;;;1.40;99.90;;;;;;5045265;28;20207;-73
2022/02/12 04:31:12;;;;;;;19.57;15.60;;;1.40;99.90;;;;;;5045027;28;20196;-72
2022/02/12 04:33:38;;;;;;;23.97;17.30;;;1.50;99.90;;;;;;5045154;28;20175;-72
2022/02/12 04:36:04;;;;;;;23.33;15.80;;;1.60;99.90;;;;;;5040032;28;20179;-71
2022/02/12 04:38:29;;;;;;;19.60;13.67;;;1.50;99.90;;;;;;5044940;28;20220;-72
2022/02/12 04:40:55;;;;;;;16.40;12.97;;;1.60;99.90;;;;;;5043317;28;20452;-71
2022/02/12 04:43:20;;;;;;;17.27;13.97;;;1.60;99.90;;;;;;5043279;28;20233;-73
2022/02/12 04:45:46;;;;;;;23.07;18.60;;;1.60;99.90;;;;;;5043229;28;20265;-74
2022/02/12 04:48:11;;;;;;;25.03;16.30;;;1.70;99.90;;;;;;5043756;28;20379;-72
2022/02/12 04:50:37;;;;;;;19.37;16.33;;;1.70;99.90;;;;;;5044103;28;20202;-71
2022/02/12 04:53:03;;;;;;;26.83;18.57;;;1.80;99.90;;;;;;5043151;28;20244;-72
2022/02/12 04:55:28;;;;;;;27.20;20.13;;;1.80;99.90;;;;;;5043885;28;20194;-69
2022/02/12 04:57:54;;;;;;;25.17;19.10;;;1.80;99.90;;;;;;5026541;28;20208;-71
2022/02/12 05:00:20;;;;;;;30.53;20.63;;;1.70;99.90;;;;;;5044732;28;20359;-72
2022/02/12 05:02:46;;;;;;;28.00;19.50;;;1.70;99.90;;;;;;5042885;28;20185;-72
2022/02/12 05:05:12;;;;;;;28.50;20.23;;;1.70;99.90;;;;;;5043160;28;20178;-72
2022/02/12 05:07:40;;;;;;;23.90;17.87;;;1.80;99.90;;;;;;5044382;28;20439;-71
2022/02/12 05:10:07;;;;;;;30.70;18.90;;;1.90;99.90;;;;;;5044038;28;20413;-70
2022/02/12 05:12:33;;;;;;;33.33;19.60;;;1.90;99.90;;;;;;5044001;28;20995;-72
2022/02/12 05:15:00;;;;;;;22.70;16.60;;;1.90;99.90;;;;;;5044282;28;20421;-71
2022/02/12 05:17:25;;;;;;;24.77;20.20;;;2.00;99.90;;;;;;5044081;28;20435;-73
2022/02/12 05:19:51;;;;;;;28.27;20.10;;;2.00;99.90;;;;;;5044526;28;20449;-71
2022/02/12 05:22:17;;;;;;;23.77;18.97;;;1.90;99.90;;;;;;5042763;28;20188;-73
2022/02/12 05:24:42;;;;;;;30.50;21.13;;;1.70;99.90;;;;;;5042685;28;20183;-72
2022/02/12 05:27:09;;;;;;;31.80;21.30;;;1.60;99.90;;;;;;5043493;28;20194;-72
2022/02/12 05:29:35;;;;;;;22.60;17.13;;;1.60;99.90;;;;;;5043958;28;20188;-72
2022/02/12 05:32:01;;;;;;;26.40;19.13;;;1.70;99.90;;;;;;5033117;28;20675;-71
2022/02/12 05:34:26;;;;;;;27.17;18.00;;;1.60;99.90;;;;;;5044420;28;20865;-72
2022/02/12 05:36:52;;;;;;;30.00;21.03;;;1.50;99.90;;;;;;5044238;28;20198;-71
2022/02/12 05:39:18;;;;;;;33.40;19.37;;;1.40;99.90;;;;;;5042571;28;20212;-72
2022/02/12 05:41:43;;;;;;;31.83;21.10;;;1.50;99.90;;;;;;5043381;28;20209;-72
2022/02/12 05:44:09;;;;;;;22.93;15.80;;;1.60;99.90;;;;;;5042495;28;20186;-72
2022/02/12 05:46:35;;;;;;;27.83;19.73;;;1.60;99.90;;;;;;5043658;28;20170;-71
2022/02/12 05:49:02;;;;;;;38.33;22.00;;;1.60;99.90;;;;;;5043977;28;20202;-70
2022/02/12 05:51:31;;;;;;;27.03;18.53;;;1.60;99.90;;;;;;5042114;28;20421;-74
2022/02/12 05:53:59;;;;;;;29.40;19.10;;;1.60;99.90;;;;;;5034483;28;20433;-72
2022/02/12 05:56:24;;;;;;;29.20;19.13;;;1.70;99.90;;;;;;5043024;28;20918;-72
2022/02/12 05:58:50;;;;;;;27.10;19.47;;;1.50;99.90;;;;;;5042423;28;20452;-71
2022/02/12 06:01:15;;;;;;;37.20;19.97;;;1.50;99.90;;;;;;5043301;28;20960;-73
2022/02/12 06:03:41;;;;;;;26.33;20.00;;;1.60;99.90;;;;;;5043708;28;20170;-71
2022/02/12 06:06:06;;;;;;;27.43;19.80;;;1.70;99.90;;;;;;5043994;28;20190;-74
2022/02/12 06:08:32;;;;;;;34.23;18.83;;;1.90;99.90;;;;;;5031181;28;20232;-73
2022/02/12 06:11:01;;;;;;;29.50;19.10;;;1.70;99.90;;;;;;5043028;28;20194;-72
2022/02/12 06:13:27;;;;;;;33.10;19.00;;;1.70;99.90;;;;;;5043395;28;20416;-72
2022/02/12 06:15:53;;;;;;;52.33;21.50;;;1.70;99.90;;;;;;5043597;28;20405;-72
2022/02/12 06:18:18;;;;;;;38.57;22.53;;;1.70;99.90;;;;;;5043133;28;20194;-71
2022/02/12 06:20:44;;;;;;;29.10;18.87;;;1.60;99.90;;;;;;5043687;28;20194;-71
2022/02/12 06:23:09;;;;;;;39.80;23.00;;;1.60;99.90;;;;;;5043439;28;20270;-71
2022/02/12 06:25:35;;;;;;;28.10;18.13;;;1.60;99.90;;;;;;5043154;28;20257;-71
2022/02/12 06:28:01;;;;;;;43.37;20.87;;;1.50;99.90;;;;;;5043653;28;20196;-72
2022/02/12 06:30:26;;;;;;;28.40;17.90;;;1.40;99.90;;;;;;5043508;28;20185;-73
2022/02/12 06:32:52;;;;;;;52.83;22.47;;;1.40;99.90;;;;;;5042742;28;20187;-70
2022/02/12 06:35:18;;;;;;;23.30;15.97;;;1.30;99.90;;;;;;5043120;28;20175;-71
2022/02/12 06:37:44;;;;;;;25.70;17.80;;;1.20;99.90;;;;;;5043472;28;20798;-72
2022/02/12 06:40:10;;;;;;;34.53;20.87;;;1.30;99.90;;;;;;5039548;28;20452;-72
2022/02/12 06:42:36;;;;;;;26.53;16.70;;;1.40;99.90;;;;;;5043028;28;20182;-71
2022/02/12 06:45:02;;;;;;;32.70;18.60;;;1.30;99.90;;;;;;5037151;28;20409;-73
2022/02/12 06:47:28;;;;;;;28.63;17.90;;;1.30;99.90;;;;;;5042895;28;20630;-73
2022/02/12 06:49:54;;;;;;;80.13;22.00;;;1.20;99.90;;;;;;5043563;28;20468;-72
2022/02/12 06:52:19;;;;;;;41.40;19.23;;;1.10;99.90;;;;;;5043291;28;20634;-70
2022/02/12 06:54:45;;;;;;;51.40;18.33;;;0.90;99.90;;;;;;5043204;28;20229;-72
2022/02/12 06:57:10;;;;;;;31.87;17.50;;;0.70;99.90;;;;;;5040920;28;20750;-71
2022/02/12 06:59:36;;;;;;;51.57;21.20;;;0.40;99.90;;;;;;5042756;28;20262;-73
2022/02/12 07:02:03;;;;;;;59.97;20.13;;;0.40;99.90;;;;;;5042042;28;20177;-70
2022/02/12 07:04:31;;;;;;;24.63;17.73;;;0.40;99.90;;;;;;5043246;28;20239;-72
2022/02/12 07:06:56;;;;;;;36.70;17.23;;;0.50;99.90;;;;;;5043173;28;20436;-72
2022/02/12 07:09:23;;;;;;;33.27;19.80;;;0.60;99.90;;;;;;5043212;28;20423;-71
2022/02/12 07:11:48;;;;;;;26.53;18.67;;;0.60;99.90;;;;;;5045057;28;20173;-72
2022/02/12 07:14:14;;;;;;;20.60;15.10;;;0.80;99.90;;;;;;5030848;28;20422;-72
2022/02/12 07:16:39;;;;;;;30.00;20.67;;;1.00;99.90;;;;;;5047192;28;20182;-72
2022/02/12 07:19:05;;;;;;;29.40;22.40;;;1.20;99.90;;;;;;5028427;28;20186;-73
2022/02/12 07:21:33;;;;;;;36.57;20.20;;;1.30;99.90;;;;;;5046883;28;20239;-73
2022/02/12 07:23:58;;;;;;;24.70;18.70;;;1.10;99.90;;;;;;5046814;28;20182;-72
2022/02/12 07:26:24;;;;;;;20.60;16.87;;;1.10;99.90;;;;;;5045889;28;20998;-70
2022/02/12 07:28:50;;;;;;;29.97;18.80;;;1.10;99.90;;;;;;5046120;28;20436;-72
2022/02/12 07:31:18;;;;;;;38.33;21.47;;;1.20;99.90;;;;;;5044496;28;20217;-69
2022/02/12 07:33:44;;;;;;;42.70;19.70;;;1.30;99.90;;;;;;5046098;28;20551;-72
2022/02/12 07:36:11;;;;;;;53.73;22.33;;;1.20;99.90;;;;;;5046392;28;20420;-71
2022/02/12 07:38:37;;;;;;;25.80;17.53;;;1.10;99.90;;;;;;5046347;28;20746;-72
2022/02/12 07:41:03;;;;;;;24.50;18.70;;;1.00;99.90;;;;;;5045861;28;20460;-72
2022/02/12 07:43:28;;;;;;;21.70;15.47;;;1.20;99.90;;;;;;5046022;28;20424;-71
2022/02/12 07:45:54;;;;;;;25.00;16.77;;;1.50;99.90;;;;;;5046378;28;20179;-70
2022/02/12 07:48:20;;;;;;;22.23;16.30;;;1.60;99.90;;;;;;5046094;28;20228;-72
2022/02/12 07:50:46;;;;;;;19.50;15.27;;;1.70;99.90;;;;;;5044621;28;20193;-70
2022/02/12 07:53:14;;;;;;;42.53;17.80;;;1.70;99.90;;;;;;5046146;28;20459;-72
2022/02/12 07:55:43;;;;;;;23.10;16.87;;;1.70;99.90;;;;;;5045865;28;20448;-72
2022/02/12 07:58:09;;;;;;;20.60;16.70;;;1.80;99.90;;;;;;5045637;28;20429;-70
2022/02/12 08:00:35;;;;;;;24.20;18.00;;;1.90;99.90;;;;;;5045997;28;20502;-70
2022/02/12 08:03:01;;;;;;;39.00;20.83;;;1.90;99.90;;;;;;5044384;28;20613;-72
2022/02/12 08:05:26;;;;;;;30.90;20.93;;;2.10;99.90;;;;;;5045731;28;20441;-70
2022/02/12 08:07:52;;;;;;;29.27;18.47;;;2.00;99.90;;;;;;5045705;28;20233;-71
2022/02/12 08:13:02;;;;;;;23.27;19.00;;;2.20;99.90;;;;;;5045504;28;20201;-71
2022/02/12 08:15:28;;;;;;;29.87;21.57;;;2.30;99.90;;;;;;5027236;28;20425;-70
2022/02/12 08:17:55;;;;;;;26.47;18.83;;;2.20;99.90;;;;;;5045516;28;20785;-70
2022/02/12 08:20:21;;;;;;;25.93;17.83;;;2.30;99.90;;;;;;5045596;28;20469;-73
2022/02/12 08:22:47;;;;;;;24.47;18.40;;;2.40;99.90;;;;;;5044931;28;20765;-69
2022/02/12 08:25:13;;;;;;;116.53;60.20;;;2.40;99.90;;;;;;5045497;28;20459;-73
2022/02/12 08:27:38;;;;;;;41.20;27.37;;;2.40;99.90;;;;;;5043920;28;20221;-68
2022/02/12 08:30:06;;;;;;;32.03;21.50;;;2.40;99.90;;;;;;5045617;28;20213;-70
2022/02/12 08:32:32;;;;;;;30.60;21.80;;;2.40;99.90;;;;;;5045012;28;20654;-72
2022/02/12 08:34:57;;;;;;;27.00;20.37;;;2.40;99.90;;;;;;5044760;28;20413;-72
2022/02/12 08:37:27;;;;;;;27.63;21.83;;;2.30;99.90;;;;;;5045020;28;20548;-71
2022/02/12 08:39:52;;;;;;;26.20;20.33;;;2.30;99.90;;;;;;5043670;28;20208;-70
2022/02/12 08:42:20;;;;;;;24.03;18.60;;;2.40;99.90;;;;;;5045337;28;20452;-73
2022/02/12 08:44:47;;;;;;;33.73;29.57;;;2.50;99.90;;;;;;5045489;28;20662;-71
2022/02/12 08:47:13;;;;;;;23.60;18.07;;;2.40;99.90;;;;;;5045369;28;20445;-71
2022/02/12 08:49:40;;;;;;;23.40;17.23;;;2.50;99.90;;;;;;5045382;28;20587;-69
2022/02/12 08:52:06;;;;;;;27.10;17.40;;;2.40;99.90;;;;;;5045235;28;20536;-72
2022/02/12 08:54:34;;;;;;;24.40;18.50;;;2.20;99.90;;;;;;5044484;28;20867;-70
2022/02/12 08:57:00;;;;;;;28.83;18.63;;;2.40;99.90;;;;;;5044756;28;20683;-69
2022/02/12 08:59:26;;;;;;;26.87;19.20;;;2.60;99.90;;;;;;5044656;28;20415;-70
2022/02/12 09:01:52;;;;;;;20.77;15.90;;;2.80;99.90;;;;;;5044404;28;20779;-70
2022/02/12 09:04:17;;;;;;;19.27;15.17;;;2.80;99.90;;;;;;5045344;28;20170;-71
2022/02/12 09:06:43;;;;;;;26.20;18.17;;;2.80;99.90;;;;;;5045428;28;20444;-70
2022/02/12 09:09:11;;;;;;;22.80;17.00;;;2.70;99.90;;;;;;5044476;28;20182;-71
2022/02/12 09:11:39;;;;;;;21.27;17.83;;;2.50;99.90;;;;;;5044674;28;20577;-71
2022/02/12 09:14:05;;;;;;;26.20;20.33;;;2.70;99.90;;;;;;5044247;28;20420;-70
2022/02/12 09:16:31;;;;;;;22.17;14.47;;;2.60;99.90;;;;;;5044378;28;20409;-71
2022/02/12 09:18:57;;;;;;;24.20;18.20;;;2.70;99.90;;;;;;5044206;28;20412;-71
2022/02/12 09:21:25;;;;;;;23.37;17.43;;;2.80;99.90;;;;;;5043764;28;20277;-70
2022/02/12 09:23:51;;;;;;;24.23;18.67;;;2.90;99.90;;;;;;5055566;28;20647;-72
2022/02/12 09:26:20;;;;;;;25.67;17.03;;;2.80;99.90;;;;;;5052239;28;20416;-72
2022/02/12 09:28:48;;;;;;;30.07;18.07;;;2.60;99.90;;;;;;5052515;28;20198;-73
2022/02/12 09:31:15;;;;;;;27.17;16.37;;;2.60;99.90;;;;;;5051069;28;20498;-69
2022/02/12 09:33:41;;;;;;;18.87;14.93;;;2.70;99.90;;;;;;5032652;28;20416;-72
2022/02/12 09:36:06;;;;;;;24.37;15.10;;;3.00;99.90;;;;;;5044093;28;20937;-71
2022/02/12 09:38:32;;;;;;;19.17;16.10;;;3.00;99.90;;;;;;5044113;28;20708;-71
2022/02/12 09:40:59;;;;;;;19.40;14.47;;;3.10;99.90;;;;;;5043599;28;20191;-70
2022/02/12 09:43:28;;;;;;;16.50;11.57;;;3.30;99.90;;;;;;5036214;28;20417;-69
2022/02/12 09:46:01;;;;;;;15.97;10.30;;;3.50;99.90;;;;;;5042682;28;20929;-72
2022/02/12 09:48:28;;;;;;;9.00;7.70;;;3.60;99.90;;;;;;5046174;28;20456;-70
2022/02/12 09:50:58;;;;;;;12.50;8.80;;;3.80;99.90;;;;;;5047405;28;20408;-71
2022/02/12 09:53:24;;;;;;;14.97;9.90;;;4.00;99.90;;;;;;5045215;28;20405;-70
2022/02/12 09:55:49;;;;;;;13.40;9.80;;;4.40;99.90;;;;;;5030412;28;21010;-71
2022/02/12 09:58:16;;;;;;;18.07;9.80;;;4.60;99.90;;;;;;5043592;28;20254;-73
2022/02/12 10:00:41;;;;;;;11.70;7.63;;;4.70;99.90;;;;;;5044161;28;20190;-72
2022/02/12 10:03:07;;;;;;;9.37;7.30;;;4.60;99.90;;;;;;5043865;28;20416;-70
2022/02/12 10:05:33;;;;;;;12.93;8.40;;;4.80;99.90;;;;;;5044418;28;20202;-72
2022/02/12 10:08:13;;;;;;;9.70;7.60;;;4.90;99.90;;;;;;5043819;28;20380;-70
2022/02/12 10:10:40;;;;;;;14.67;9.13;;;5.00;99.90;;;;;;5043966;28;20172;-68
2022/02/12 10:13:21;;;;;;;13.60;7.27;;;5.00;99.90;;;;;;5044282;28;21174;-71
2022/02/12 10:15:50;;;;;;;12.30;9.17;;;5.00;99.90;;;;;;5043760;28;20475;-70
2022/02/12 10:18:19;;;;;;;12.43;7.77;;;5.10;99.90;;;;;;5036175;28;21225;-71
2022/02/12 10:20:45;;;;;;;13.43;7.83;;;5.20;99.90;;;;;;5044424;28;20449;-71
2022/02/12 10:23:13;;;;;;;15.77;7.97;;;5.00;99.90;;;;;;5034369;28;20421;-72
2022/02/12 10:25:45;;;;;;;16.20;9.60;;;5.10;99.90;;;;;;5043768;28;20928;-71
2022/02/12 10:28:12;;;;;;;16.70;8.83;;;5.30;99.90;;;;;;5032804;28;20455;-72
2022/02/12 10:30:39;;;;;;;14.33;8.50;;;5.50;99.90;;;;;;5043432;28;20584;-70
2022/02/12 10:33:07;;;;;;;10.40;8.07;;;5.60;99.90;;;;;;5043382;28;20410;-72
2022/02/12 10:35:34;;;;;;;16.50;8.60;;;5.60;99.90;;;;;;5043401;28;20413;-72
2022/02/12 10:38:05;;;;;;;16.90;9.03;;;5.60;99.90;;;;;;5043023;28;20524;-70
2022/02/12 10:40:32;;;;;;;13.73;7.70;;;5.70;99.90;;;;;;5039470;28;20452;-71
2022/02/12 10:42:58;;;;;;;12.90;8.17;;;5.70;99.90;;;;;;5042911;28;20417;-70
2022/02/12 10:45:26;;;;;;;13.60;8.67;;;5.80;99.90;;;;;;5044800;28;20463;-70
2022/02/12 10:47:53;;;;;;;11.80;8.00;;;5.90;99.90;;;;;;5046916;28;20524;-72
2022/02/12 10:50:21;;;;;;;10.77;8.20;;;5.90;99.90;;;;;;5046423;28;20902;-69
2022/02/12 10:52:48;;;;;;;15.73;9.10;;;6.00;99.90;;;;;;5046534;28;20772;-72
2022/02/12 10:55:44;;;;;;;14.20;7.80;;;6.30;99.90;;;;;;5046866;28;20408;-70
2022/02/12 10:58:12;;;;;;;12.83;8.20;;;6.40;99.90;;;;;;5025935;28;20449;-71
2022/02/12 11:00:43;;;;;;;11.03;7.70;;;6.40;99.90;;;;;;5046774;28;20468;-70
2022/02/12 11:03:12;;;;;;;14.47;7.50;;;6.40;99.90;;;;;;5046653;28;20693;-70
2022/02/12 11:05:43;;;;;;;13.23;7.77;;;6.50;99.90;;;;;;5046715;28;20417;-69
2022/02/12 11:08:09;;;;;;;11.60;7.60;;;6.50;99.90;;;;;;5046570;28;20416;-70
2022/02/12 11:10:36;;;;;;;15.97;7.73;;;6.50;99.90;;;;;;5046427;28;20485;-73
2022/02/12 11:13:04;;;;;;;13.00;7.03;;;6.60;99.90;;;;;;5046264;28;21059;-71
2022/02/12 11:15:31;;;;;;;10.50;7.70;;;6.70;99.90;;;;;;5046430;28;20437;-72
2022/02/12 11:18:02;;;;;;;11.83;8.10;;;7.10;99.90;;;;;;5046602;28;20523;-72
2022/02/12 11:20:28;;;;;;;10.20;6.60;;;8.70;99.90;;;;;;5046055;28;20981;-69
2022/02/12 11:23:19;;;;;;;10.07;6.80;;;10.10;99.90;;;;;;5046140;28;20424;-70
2022/02/12 11:25:47;;;;;;;16.73;6.60;;;10.80;96.60;;;;;;5046245;28;20508;-70
2022/02/12 11:28:13;;;;;;;11.67;6.80;;;11.20;96.60;;;;;;5046063;28;20428;-71
2022/02/12 11:30:41;;;;;;;10.23;6.87;;;12.40;96.00;;;;;;5046266;28;20413;-69
2022/02/12 11:33:27;;;;;;;7.57;5.63;;;12.40;94.20;;;;;;5046210;28;20500;-70
2022/02/12 11:36:11;;;;;;;14.00;6.43;;;12.60;92.20;;;;;;5046423;28;20428;-71
2022/02/12 11:38:39;;;;;;;12.63;6.63;;;11.40;92.60;;;;;;5046333;28;20431;-70
2022/02/12 11:41:38;;;;;;;10.97;4.87;;;11.50;92.60;;;;;;5046064;28;21023;-70
2022/02/12 11:44:04;;;;;;;14.23;5.80;;;12.00;91.70;;;;;;5000750;28;20788;-70
2022/02/12 11:47:01;;;;;;;8.27;5.60;;;12.90;91.00;;;;;;5046450;28;20420;-71
2022/02/12 11:49:28;;;;;;;8.00;5.40;;;12.40;87.70;;;;;;5046409;28;20842;-72
2022/02/12 11:51:57;;;;;;;7.77;5.40;;;11.50;90.00;;;;;;5045579;28;20422;-70
2022/02/12 11:54:47;;;;;;;5.60;5.00;;;12.50;89.40;;;;;;5045944;28;20403;-70
2022/02/12 11:57:18;;;;;;;10.20;5.80;;;12.60;87.50;;;;;;5045009;28;20981;-70
2022/02/12 11:59:45;;;;;;;16.13;5.63;;;13.70;86.90;;;;;;5045593;28;20454;-72
2022/02/12 12:02:35;;;;;;;6.70;5.10;;;14.10;84.00;;;;;;5045437;28;20411;-68
2022/02/12 12:05:20;;;;;;;8.60;5.93;;;14.50;82.30;;;;;;5045387;28;20943;-70
2022/02/12 12:08:01;;;;;;;9.60;6.10;;;15.90;78.60;;;;;;5046111;28;20525;-69
2022/02/12 12:10:37;;;;;;;8.70;5.00;;;14.40;77.40;;;;;;5036268;28;20417;-72
2022/02/12 12:13:12;;;;;;;11.23;5.23;;;14.20;78.70;;;;;;5044994;28;20412;-70
2022/02/12 12:15:38;;;;;;;7.50;4.60;;;14.70;77.30;;;;;;5045059;28;20564;-68
2022/02/12 12:18:05;;;;;;;7.60;5.00;;;15.20;76.00;;;;;;5045575;28;20428;-70
2022/02/12 12:20:42;;;;;;;7.63;5.07;;;13.30;76.90;;;;;;5044972;28;20859;-70
2022/02/12 12:23:14;;;;;;;6.47;4.60;;;13.20;78.70;;;;;;5032622;28;20420;-71
2022/02/12 12:26:06;;;;;;;6.93;3.83;;;13.50;77.80;;;;;;5035901;28;20470;-69
2022/02/12 12:28:35;;;;;;;6.33;4.53;;;14.60;76.10;;;;;;5044617;28;20444;-70
2022/02/12 12:31:05;;;;;;;4.30;3.90;;;16.70;70.00;;;;;;5044912;28;20439;-70
2022/02/12 12:33:32;;;;;;;7.63;4.23;;;15.10;68.90;;;;;;5044992;28;20510;-70
2022/02/12 12:35:59;;;;;;;4.10;3.70;;;14.40;71.40;;;;;;5042811;28;20482;-69
2022/02/12 12:38:45;;;;;;;9.03;4.80;;;14.60;70.70;;;;;;5045226;28;20432;-71
2022/02/12 12:41:34;;;;;;;6.27;3.60;;;15.20;71.30;;;;;;5045184;28;20447;-70
2022/02/12 12:44:06;;;;;;;6.80;3.60;;;15.30;68.40;;;;;;5045126;28;20423;-71
2022/02/12 12:46:32;;;;;;;5.43;3.40;;;15.30;65.80;;;;;;5045435;28;20417;-70
2022/02/12 12:48:58;;;;;;;3.10;2.50;;;16.30;65.30;;;;;;5043762;28;20955;-71